createdAt,value
2019-03-22T00:00:34.857Z,8.30
2019-03-22T00:03:02.809Z,8.40
2019-03-22T00:05:31.167Z,5.47
2019-03-22T00:07:59.111Z,6.80
2019-03-22T00:10:28.045Z,6.80
2019-03-22T00:12:56.026Z,8.13
2019-03-22T00:15:24.671Z,7.77
2019-03-22T00:17:53.187Z,8.53
2019-03-22T00:20:21.480Z,7.83
2019-03-22T00:22:49.775Z,5.90
2019-03-22T00:25:18.701Z,6.20
2019-03-22T00:27:46.605Z,7.20
2019-03-22T00:30:15.526Z,5.80
2019-03-22T00:32:43.746Z,6.37
2019-03-22T00:35:11.670Z,6.97
2019-03-22T00:37:40.266Z,6.03
2019-03-22T00:40:08.566Z,9.80
2019-03-22T00:42:36.473Z,5.70
2019-03-22T00:45:04.869Z,6.90
2019-03-22T00:47:33.655Z,6.30
2019-03-22T00:50:01.858Z,8.50
2019-03-22T00:52:29.777Z,8.30
2019-03-22T00:54:58.485Z,7.10
2019-03-22T00:57:28.659Z,6.07
2019-03-22T00:59:57.104Z,8.13
2019-03-22T01:02:25.113Z,6.23
2019-03-22T01:04:53.041Z,9.93
2019-03-22T01:07:21.269Z,6.63
2019-03-22T01:09:49.452Z,5.33
2019-03-22T01:12:18.131Z,7.27
2019-03-22T01:14:46.303Z,6.50
2019-03-22T01:17:14.237Z,7.80
2019-03-22T01:19:43.160Z,5.77
2019-03-22T01:22:11.966Z,6.57
2019-03-22T01:24:40.131Z,6.70
2019-03-22T01:27:08.412Z,7.67
2019-03-22T01:29:36.877Z,6.63
2019-03-22T01:32:05.069Z,7.17
2019-03-22T01:34:33.336Z,7.60
2019-03-22T01:37:01.253Z,6.63
2019-03-22T01:39:29.545Z,6.43
2019-03-22T01:41:58.605Z,11.50
2019-03-22T01:44:27.316Z,5.57
2019-03-22T01:46:56.219Z,6.53
2019-03-22T01:49:24.729Z,7.73
2019-03-22T01:51:52.970Z,7.10
2019-03-22T01:54:21.551Z,5.83
2019-03-22T01:56:49.830Z,5.97
2019-03-22T01:59:17.821Z,7.60
2019-03-22T02:01:46.097Z,6.73
2019-03-22T02:04:24.385Z,6.10
2019-03-22T02:06:52.558Z,9.47
2019-03-22T02:09:20.773Z,7.60
2019-03-22T02:11:49.289Z,8.07
2019-03-22T02:14:17.904Z,7.40
2019-03-22T02:16:45.815Z,5.73
2019-03-22T02:19:14.048Z,5.43
2019-03-22T02:21:42.890Z,6.17
2019-03-22T02:24:10.905Z,8.67
2019-03-22T02:26:39.797Z,7.30
2019-03-22T02:29:08.314Z,7.30
2019-03-22T02:31:36.905Z,6.57
2019-03-22T02:34:04.836Z,7.23
2019-03-22T02:36:33.040Z,5.37
2019-03-22T02:39:01.287Z,5.23
2019-03-22T02:41:29.211Z,7.47
2019-03-22T02:43:57.489Z,8.60
2019-03-22T02:46:26.050Z,15.80
2019-03-22T02:48:54.695Z,6.90
2019-03-22T02:51:22.736Z,5.80
2019-03-22T02:53:50.991Z,5.33
2019-03-22T02:56:19.603Z,6.40
2019-03-22T02:58:47.826Z,6.70
2019-03-22T03:01:15.814Z,7.87
2019-03-22T03:03:44.156Z,6.23
2019-03-22T03:06:12.069Z,7.50
2019-03-22T03:08:41.434Z,6.30
2019-03-22T03:11:09.999Z,11.73
2019-03-22T03:13:38.574Z,7.67
2019-03-22T03:16:07.234Z,5.27
2019-03-22T03:18:35.509Z,7.33
2019-03-22T03:21:03.470Z,7.97
2019-03-22T03:23:32.167Z,6.67
2019-03-22T03:26:00.495Z,7.47
2019-03-22T03:28:36.469Z,6.40
2019-03-22T03:30:58.334Z,6.80
2019-03-22T03:33:26.905Z,5.43
2019-03-22T03:35:55.109Z,5.60
2019-03-22T03:38:23.067Z,6.20
2019-03-22T03:40:51.132Z,5.97
2019-03-22T03:43:19.441Z,6.03
2019-03-22T03:45:48.001Z,6.10
2019-03-22T03:48:16.447Z,6.30
2019-03-22T03:50:44.754Z,10.30
2019-03-22T03:53:13.282Z,8.83
2019-03-22T03:55:41.214Z,8.07
2019-03-22T03:58:10.498Z,7.73
2019-03-22T04:00:38.424Z,6.43
2019-03-22T04:03:06.785Z,7.10
2019-03-22T04:05:35.473Z,11.10
2019-03-22T04:08:04.302Z,8.23
2019-03-22T04:10:32.487Z,6.97
2019-03-22T04:13:00.942Z,8.73
2019-03-22T04:15:29.434Z,7.13
2019-03-22T04:17:58.014Z,9.30
2019-03-22T04:20:26.287Z,7.77
2019-03-22T04:22:54.330Z,9.33
2019-03-22T04:25:23.254Z,9.80
2019-03-22T04:27:51.204Z,13.03
2019-03-22T04:30:19.699Z,12.17
2019-03-22T04:32:47.903Z,11.20
2019-03-22T04:35:15.824Z,10.17
2019-03-22T04:37:43.806Z,12.17
2019-03-22T04:40:39.912Z,7.77
2019-03-22T04:43:08.130Z,11.50
2019-03-22T04:45:36.544Z,6.50
2019-03-22T04:48:07.192Z,8.57
2019-03-22T04:50:37.329Z,7.80
2019-03-22T04:53:06.694Z,8.60
2019-03-22T04:55:35.482Z,7.60
2019-03-22T04:58:04.359Z,9.00
2019-03-22T05:00:32.696Z,8.40
2019-03-22T05:03:01.708Z,8.63
2019-03-22T05:05:30.039Z,9.83
2019-03-22T05:07:58.478Z,7.60
2019-03-22T05:10:27.559Z,8.10
2019-03-22T05:12:57.420Z,8.37
2019-03-22T05:15:26.101Z,8.10
2019-03-22T05:17:54.102Z,11.00
2019-03-22T05:20:22.721Z,7.00
2019-03-22T05:22:51.408Z,12.10
2019-03-22T05:25:20.975Z,8.77
2019-03-22T05:27:50.331Z,8.37
2019-03-22T05:30:40.387Z,8.70
2019-03-22T05:33:08.937Z,11.60
2019-03-22T05:35:37.155Z,10.13
2019-03-22T05:38:05.432Z,8.50
2019-03-22T05:40:33.337Z,11.23
2019-03-22T05:43:01.565Z,9.67
2019-03-22T05:45:30.201Z,9.10
2019-03-22T05:47:58.241Z,11.33
2019-03-22T05:50:26.948Z,9.43
2019-03-22T05:52:55.585Z,7.40
2019-03-22T05:55:24.180Z,8.57
2019-03-22T05:57:52.467Z,9.07
2019-03-22T06:00:21.152Z,11.70
2019-03-22T06:02:49.631Z,10.07
2019-03-22T06:05:18.313Z,10.00
2019-03-22T06:07:46.566Z,11.73
2019-03-22T06:10:14.516Z,9.10
2019-03-22T06:12:42.457Z,10.50
2019-03-22T06:15:10.793Z,13.60
2019-03-22T06:17:50.962Z,12.97
2019-03-22T06:20:09.265Z,12.33
2019-03-22T06:22:37.651Z,13.23
2019-03-22T06:25:05.927Z,13.43
2019-03-22T06:27:34.458Z,15.03
2019-03-22T06:30:02.711Z,14.50
2019-03-22T06:32:31.289Z,13.47
2019-03-22T06:34:59.635Z,11.10
2019-03-22T06:37:27.930Z,12.50
2019-03-22T06:39:56.302Z,14.10
2019-03-22T06:42:24.478Z,10.80
2019-03-22T06:44:52.957Z,13.23
2019-03-22T06:47:20.882Z,10.23
2019-03-22T06:49:49.205Z,11.40
2019-03-22T06:52:18.173Z,11.23
2019-03-22T06:54:46.785Z,14.70
2019-03-22T06:57:15.085Z,13.07
2019-03-22T06:59:43.293Z,14.97
2019-03-22T07:02:11.599Z,15.60
2019-03-22T07:04:40.116Z,12.17
2019-03-22T07:07:08.046Z,13.97
2019-03-22T07:09:36.325Z,13.53
2019-03-22T07:12:04.629Z,13.23
2019-03-22T07:14:33.286Z,14.07
2019-03-22T07:17:01.482Z,14.73
2019-03-22T07:19:29.784Z,15.00
2019-03-22T07:21:58.113Z,12.27
2019-03-22T07:24:26.709Z,13.77
2019-03-22T07:26:54.910Z,14.17
2019-03-22T07:29:23.592Z,17.77
2019-03-22T07:31:51.871Z,11.13
2019-03-22T07:34:19.775Z,13.30
2019-03-22T07:36:48.002Z,15.30
2019-03-22T07:39:17.538Z,11.30
2019-03-22T07:41:45.802Z,15.73
2019-03-22T07:44:14.749Z,15.80
2019-03-22T07:46:42.654Z,12.57
2019-03-22T07:49:10.858Z,19.40
2019-03-22T07:51:39.620Z,16.83
2019-03-22T07:54:08.009Z,14.03
2019-03-22T07:56:36.447Z,18.20
2019-03-22T07:59:04.364Z,12.37
2019-03-22T08:01:32.582Z,15.80
2019-03-22T08:04:00.797Z,16.93
2019-03-22T08:06:28.964Z,13.27
2019-03-22T08:08:57.265Z,14.50
2019-03-22T08:11:25.183Z,14.50
2019-03-22T08:13:53.125Z,17.37
2019-03-22T08:16:21.537Z,14.60
2019-03-22T08:18:50.389Z,17.70
2019-03-22T08:21:18.585Z,14.90
2019-03-22T08:23:46.948Z,13.70
2019-03-22T08:26:15.829Z,14.10
2019-03-22T08:28:44.501Z,15.97
2019-03-22T08:31:13.067Z,17.57
2019-03-22T08:33:42.481Z,16.10
2019-03-22T08:36:10.863Z,13.87
2019-03-22T08:38:39.211Z,14.27
2019-03-22T08:41:07.490Z,10.53
2019-03-22T08:43:35.422Z,15.70
2019-03-22T08:46:03.745Z,13.37
2019-03-22T08:48:31.761Z,11.80
2019-03-22T08:51:00.495Z,12.80
2019-03-22T08:53:29.068Z,14.93
2019-03-22T08:55:57.374Z,18.80
2019-03-22T08:58:25.966Z,13.57
2019-03-22T09:00:57.727Z,11.40
2019-03-22T09:03:23.868Z,14.03
2019-03-22T09:05:52.128Z,14.90
2019-03-22T09:08:20.407Z,13.60
2019-03-22T09:10:48.377Z,13.70
2019-03-22T09:13:16.606Z,13.67
2019-03-22T09:15:44.940Z,12.80
2019-03-22T09:18:15.404Z,15.67
2019-03-22T09:20:42.871Z,10.17
2019-03-22T09:23:11.274Z,12.00
2019-03-22T09:25:39.307Z,16.60
2019-03-22T09:28:10.379Z,13.37
2019-03-22T09:30:38.340Z,10.47
2019-03-22T09:33:06.294Z,11.60
2019-03-22T09:35:34.252Z,17.47
2019-03-22T09:38:12.311Z,13.73
2019-03-22T09:40:32.555Z,10.97
2019-03-22T09:43:01.333Z,14.10
2019-03-22T09:45:29.555Z,13.07
2019-03-22T09:47:57.489Z,11.87
2019-03-22T09:50:25.669Z,11.23
2019-03-22T09:52:54.251Z,10.70
2019-03-22T09:55:22.754Z,10.60
2019-03-22T09:57:51.634Z,11.47
2019-03-22T10:00:38.119Z,9.03
2019-03-22T10:03:06.434Z,13.83
2019-03-22T10:05:34.691Z,16.10
2019-03-22T10:08:03.032Z,10.50
2019-03-22T10:10:31.253Z,11.40
2019-03-22T10:12:59.562Z,8.87
2019-03-22T10:15:27.509Z,9.17
2019-03-22T10:17:56.111Z,11.40
2019-03-22T10:20:24.783Z,12.83
2019-03-22T10:22:53.227Z,7.60
2019-03-22T10:25:22.466Z,8.70
2019-03-22T10:27:50.959Z,10.33
2019-03-22T10:30:18.955Z,7.20
2019-03-22T10:32:47.217Z,7.97
2019-03-22T10:35:25.408Z,8.90
2019-03-22T10:37:45.585Z,8.67
2019-03-22T10:40:14.180Z,12.93
2019-03-22T10:42:42.475Z,8.27
2019-03-22T10:45:10.708Z,6.10
2019-03-22T10:47:39.437Z,9.80
2019-03-22T10:50:08.276Z,10.43
2019-03-22T10:52:36.758Z,10.63
2019-03-22T10:55:23.231Z,6.70
2019-03-22T10:57:35.062Z,6.70
2019-03-22T11:00:02.993Z,8.43
2019-03-22T11:02:39.195Z,9.33
2019-03-22T11:05:08.145Z,6.27
2019-03-22T11:07:36.050Z,7.73
2019-03-22T11:10:05.136Z,6.63
2019-03-22T11:12:33.861Z,10.10
2019-03-22T11:15:02.724Z,7.90
2019-03-22T11:17:31.717Z,9.00
2019-03-22T11:20:00.733Z,7.03
2019-03-22T11:22:29.714Z,6.17
2019-03-22T11:24:58.004Z,10.87
2019-03-22T11:27:25.913Z,12.17
2019-03-22T11:29:54.204Z,5.33
2019-03-22T11:32:23.075Z,7.10
2019-03-22T11:34:51.301Z,8.93
2019-03-22T11:37:19.220Z,8.80
2019-03-22T11:39:47.209Z,7.00
2019-03-22T11:42:15.445Z,5.47
2019-03-22T11:44:43.511Z,5.87
2019-03-22T11:47:12.270Z,11.87
2019-03-22T11:49:40.649Z,9.30
2019-03-22T11:52:08.637Z,6.53
2019-03-22T11:54:37.149Z,5.47
2019-03-22T11:57:05.328Z,7.63
2019-03-22T11:59:33.841Z,7.30
2019-03-22T12:02:02.450Z,8.07
2019-03-22T12:04:30.808Z,9.93
2019-03-22T12:06:58.728Z,5.97
2019-03-22T12:09:26.914Z,6.90
2019-03-22T12:11:55.123Z,5.63
2019-03-22T12:14:24.028Z,5.43
2019-03-22T12:16:51.950Z,4.73
2019-03-22T12:19:20.204Z,5.97
2019-03-22T12:21:48.129Z,5.53
2019-03-22T12:24:18.668Z,5.70
2019-03-22T12:26:46.937Z,5.87
2019-03-22T12:29:15.440Z,5.87
2019-03-22T12:31:44.309Z,5.37
2019-03-22T12:34:12.221Z,4.67
2019-03-22T12:36:40.870Z,4.30
2019-03-22T12:39:09.112Z,5.87
2019-03-22T12:41:37.369Z,5.57
2019-03-22T12:44:05.592Z,4.30
2019-03-22T12:46:34.317Z,5.53
2019-03-22T12:49:02.517Z,4.73
2019-03-22T12:51:30.448Z,5.30
2019-03-22T12:53:58.649Z,3.53
2019-03-22T12:56:26.942Z,3.53
2019-03-22T12:58:55.188Z,6.90
2019-03-22T13:01:23.143Z,3.40
2019-03-22T13:03:51.448Z,4.90
2019-03-22T13:06:19.685Z,2.80
2019-03-22T13:08:48.573Z,4.03
2019-03-22T13:11:16.519Z,3.60
2019-03-22T13:13:44.814Z,2.80
2019-03-22T13:16:13.395Z,4.63
2019-03-22T13:18:49.778Z,6.40
2019-03-22T13:21:11.221Z,5.70
2019-03-22T13:23:40.069Z,2.80
2019-03-22T13:26:08.540Z,3.07
2019-03-22T13:28:36.728Z,4.20
2019-03-22T13:31:04.949Z,4.10
2019-03-22T13:33:33.162Z,4.50
2019-03-22T13:36:01.347Z,2.53
2019-03-22T13:38:30.026Z,2.50
2019-03-22T13:40:58.771Z,3.40
2019-03-22T13:43:26.697Z,2.60
2019-03-22T13:45:55.262Z,2.80
2019-03-22T13:48:23.859Z,2.73
2019-03-22T13:50:52.428Z,2.90
2019-03-22T13:53:21.397Z,3.77
2019-03-22T13:55:50.109Z,3.10
2019-03-22T13:58:18.798Z,3.00
2019-03-22T14:00:47.209Z,3.33
2019-03-22T14:03:15.428Z,2.90
2019-03-22T14:05:43.684Z,3.23
2019-03-22T14:08:11.894Z,3.83
2019-03-22T14:10:39.812Z,2.73
2019-03-22T14:13:08.558Z,3.37
2019-03-22T14:15:36.481Z,4.60
2019-03-22T14:18:05.405Z,2.40
2019-03-22T14:20:34.691Z,2.67
2019-03-22T14:23:02.885Z,2.57
2019-03-22T14:25:31.066Z,2.53
2019-03-22T14:28:00.674Z,2.70
2019-03-22T14:30:28.905Z,2.20
2019-03-22T14:32:57.547Z,2.73
2019-03-22T14:35:25.768Z,2.87
2019-03-22T14:37:53.985Z,3.63
2019-03-22T14:40:22.769Z,2.77
2019-03-22T14:42:51.009Z,3.37
2019-03-22T14:45:18.957Z,3.27
2019-03-22T14:47:46.905Z,4.70
2019-03-22T14:50:15.170Z,3.40
2019-03-22T14:52:43.073Z,3.27
2019-03-22T14:55:11.280Z,7.43
2019-03-22T14:57:48.381Z,6.93
2019-03-22T15:00:09.603Z,4.60
2019-03-22T15:02:37.516Z,5.70
2019-03-22T15:05:05.874Z,4.70
2019-03-22T15:07:33.794Z,3.67
2019-03-22T15:10:02.110Z,4.47
2019-03-22T15:12:30.713Z,4.30
2019-03-22T15:15:23.624Z,4.73
2019-03-22T15:18:00.199Z,4.73
2019-03-22T15:20:59.548Z,4.60
2019-03-22T15:24:03.094Z,3.30
2019-03-22T15:26:43.164Z,4.77
2019-03-22T15:29:49.130Z,5.17
2019-03-22T15:32:29.693Z,3.97
2019-03-22T15:35:23.291Z,7.37
2019-03-22T15:38:13.859Z,5.73
2019-03-22T15:40:41.815Z,12.50
2019-03-22T15:43:10.431Z,5.03
2019-03-22T15:45:38.678Z,5.03
2019-03-22T15:48:07.608Z,4.87
2019-03-22T15:50:35.613Z,3.70
2019-03-22T15:53:03.940Z,3.97
2019-03-22T15:55:31.881Z,3.93
2019-03-22T15:58:00.645Z,6.13
2019-03-22T16:00:28.557Z,4.43
2019-03-22T16:02:56.506Z,6.10
2019-03-22T16:05:24.858Z,5.93
2019-03-22T16:07:53.093Z,8.27
2019-03-22T16:10:21.163Z,5.90
2019-03-22T16:12:49.336Z,5.23
2019-03-22T16:15:17.802Z,9.10
2019-03-22T16:17:45.755Z,5.43
2019-03-22T16:20:14.101Z,4.60
2019-03-22T16:22:42.289Z,5.23
2019-03-22T16:25:11.046Z,5.70
2019-03-22T16:27:41.641Z,4.20
2019-03-22T16:30:09.679Z,6.63
2019-03-22T16:32:37.642Z,5.03
2019-03-22T16:35:06.836Z,6.77
2019-03-22T16:37:34.874Z,4.83
2019-03-22T16:40:04.684Z,5.80
2019-03-22T16:42:33.861Z,5.20
2019-03-22T16:45:02.246Z,4.37
2019-03-22T16:47:30.923Z,5.13
2019-03-22T16:49:59.318Z,7.13
2019-03-22T16:52:27.360Z,4.73
2019-03-22T16:54:55.681Z,4.67
2019-03-22T16:57:23.912Z,8.30
2019-03-22T16:59:52.094Z,5.30
2019-03-22T17:02:20.378Z,4.40
2019-03-22T17:04:49.214Z,6.67
2019-03-22T17:07:17.147Z,3.57
2019-03-22T17:09:46.069Z,5.37
2019-03-22T17:12:14.194Z,5.23
2019-03-22T17:14:42.388Z,6.20
2019-03-22T17:17:10.610Z,5.20
2019-03-22T17:19:38.905Z,9.30
2019-03-22T17:22:07.106Z,6.10
2019-03-22T17:24:35.401Z,5.00
2019-03-22T17:27:05.129Z,3.10
2019-03-22T17:29:33.480Z,7.03
2019-03-22T17:32:02.494Z,8.20
2019-03-22T17:34:31.261Z,3.63
2019-03-22T17:37:00.040Z,4.07
2019-03-22T17:39:28.545Z,5.17
2019-03-22T17:41:56.884Z,3.93
2019-03-22T17:44:25.398Z,2.70
2019-03-22T17:46:53.988Z,4.30
2019-03-22T17:49:22.157Z,3.00
2019-03-22T17:51:50.162Z,2.90
2019-03-22T17:54:18.377Z,3.97
2019-03-22T17:56:47.106Z,5.60
2019-03-22T17:59:15.471Z,3.73
2019-03-22T18:01:44.291Z,2.60
2019-03-22T18:04:12.640Z,2.83
2019-03-22T18:06:41.725Z,3.67
2019-03-22T18:09:09.825Z,2.93
2019-03-22T18:11:38.193Z,3.27
2019-03-22T18:14:06.461Z,17.20
2019-03-22T18:16:35.025Z,24.50
2019-03-22T18:19:03.393Z,15.23
2019-03-22T18:21:31.562Z,7.60
2019-03-22T18:24:00.213Z,3.50
2019-03-22T18:26:28.137Z,8.40
2019-03-22T18:28:56.050Z,5.70
2019-03-22T18:31:24.265Z,6.03
2019-03-22T18:33:52.287Z,10.23
2019-03-22T18:36:20.522Z,8.90
2019-03-22T18:38:48.458Z,6.63
2019-03-22T18:41:17.067Z,11.70
2019-03-22T18:43:44.976Z,10.10
2019-03-22T18:46:13.309Z,5.70
2019-03-22T18:48:41.547Z,7.73
2019-03-22T18:51:10.138Z,5.17
2019-03-22T18:53:38.711Z,6.20
2019-03-22T18:56:06.660Z,11.83
2019-03-22T18:58:34.836Z,10.50
2019-03-22T19:01:03.089Z,6.47
2019-03-22T19:03:31.013Z,7.23
2019-03-22T19:05:59.282Z,6.23
2019-03-22T19:08:27.498Z,6.17
2019-03-22T19:10:55.869Z,8.53
2019-03-22T19:13:30.586Z,5.37
2019-03-22T19:15:54.162Z,5.90
2019-03-22T19:18:22.908Z,4.73
2019-03-22T19:20:51.137Z,5.03
2019-03-22T19:23:19.137Z,5.30
2019-03-22T19:25:47.676Z,6.40
2019-03-22T19:28:16.806Z,9.40
2019-03-22T19:30:45.461Z,4.43
2019-03-22T19:33:14.084Z,5.27
2019-03-22T19:35:42.327Z,4.03
2019-03-22T19:38:10.910Z,3.97
2019-03-22T19:40:38.828Z,3.47
2019-03-22T19:43:06.744Z,5.53
2019-03-22T19:45:34.659Z,3.80
2019-03-22T19:48:03.293Z,5.93
2019-03-22T19:50:31.883Z,3.93
2019-03-22T19:53:00.419Z,8.40
2019-03-22T19:55:28.690Z,3.73
2019-03-22T19:57:57.429Z,4.27
2019-03-22T20:00:26.093Z,4.30
2019-03-22T20:02:54.496Z,6.37
2019-03-22T20:05:29.155Z,4.90
2019-03-22T20:07:57.083Z,4.43
2019-03-22T20:10:25.703Z,5.20
2019-03-22T20:12:53.942Z,5.70
2019-03-22T20:15:22.528Z,4.47
2019-03-22T20:17:50.700Z,4.13
2019-03-22T20:20:18.952Z,4.80
2019-03-22T20:22:46.853Z,3.83
2019-03-22T20:25:14.800Z,4.00
2019-03-22T20:27:42.990Z,5.23
2019-03-22T20:30:12.061Z,3.93
2019-03-22T20:32:40.225Z,4.03
2019-03-22T20:35:16.212Z,6.27
2019-03-22T20:37:39.409Z,4.10
2019-03-22T20:40:08.061Z,3.50
2019-03-22T20:42:36.224Z,7.00
2019-03-22T20:45:05.029Z,4.57
2019-03-22T20:47:34.010Z,3.60
2019-03-22T20:50:01.954Z,4.73
2019-03-22T20:52:30.461Z,3.80
2019-03-22T20:54:58.710Z,6.60
2019-03-22T20:57:27.217Z,3.30
2019-03-22T20:59:55.506Z,3.60
2019-03-22T21:02:23.649Z,3.63
2019-03-22T21:04:51.918Z,5.23
2019-03-22T21:07:19.880Z,6.40
2019-03-22T21:09:48.268Z,3.53
2019-03-22T21:12:16.312Z,3.23
2019-03-22T21:14:45.156Z,3.30
2019-03-22T21:17:13.397Z,3.70
2019-03-22T21:19:41.304Z,5.20
2019-03-22T21:22:09.241Z,3.50
2019-03-22T21:24:37.225Z,3.63
2019-03-22T21:27:15.145Z,4.30
2019-03-22T21:29:44.170Z,3.87
2019-03-22T21:32:07.587Z,3.67
2019-03-22T21:34:35.554Z,10.03
2019-03-22T21:37:04.151Z,4.57
2019-03-22T21:39:32.423Z,3.77
2019-03-22T21:42:01.024Z,6.13
2019-03-22T21:44:29.757Z,4.17
2019-03-22T21:46:58.237Z,5.47
2019-03-22T21:49:26.218Z,4.10
2019-03-22T21:51:55.142Z,3.60
2019-03-22T21:54:23.326Z,7.07
2019-03-22T21:56:51.349Z,4.17
2019-03-22T21:59:19.896Z,4.70
2019-03-22T22:01:48.353Z,4.17
2019-03-22T22:04:16.538Z,4.53
2019-03-22T22:06:44.804Z,4.30
2019-03-22T22:09:13.698Z,4.53
2019-03-22T22:11:42.299Z,4.77
2019-03-22T22:14:10.842Z,5.50
2019-03-22T22:16:39.143Z,4.00
2019-03-22T22:19:07.397Z,4.30
2019-03-22T22:21:35.988Z,4.50
2019-03-22T22:24:04.316Z,5.67
2019-03-22T22:26:32.854Z,4.93
2019-03-22T22:29:01.129Z,7.53
2019-03-22T22:31:29.044Z,8.63
2019-03-22T22:33:57.654Z,3.90
2019-03-22T22:36:25.575Z,6.63
2019-03-22T22:38:53.768Z,6.97
2019-03-22T22:41:21.738Z,9.13
2019-03-22T22:43:49.915Z,14.93
2019-03-22T22:46:17.841Z,7.43
2019-03-22T22:48:45.765Z,5.20
2019-03-22T22:51:13.978Z,6.70
2019-03-22T22:53:42.152Z,5.30
2019-03-22T22:56:10.336Z,5.27
2019-03-22T22:58:38.886Z,4.67
2019-03-22T23:01:07.429Z,5.23
2019-03-22T23:03:36.074Z,4.70
2019-03-22T23:06:09.402Z,4.47
2019-03-22T23:08:34.562Z,6.63
2019-03-22T23:11:02.759Z,7.83
2019-03-22T23:13:30.931Z,5.13
2019-03-22T23:15:59.148Z,6.67
2019-03-22T23:18:28.056Z,7.43
2019-03-22T23:20:56.577Z,4.73
2019-03-22T23:23:24.844Z,5.20
2019-03-22T23:25:53.160Z,5.80
2019-03-22T23:28:21.602Z,7.23
2019-03-22T23:30:49.899Z,25.97
2019-03-22T23:33:18.114Z,6.07
2019-03-22T23:35:46.118Z,6.60
2019-03-22T23:38:14.818Z,5.63
2019-03-22T23:40:43.049Z,7.17
2019-03-22T23:43:11.898Z,6.70
2019-03-22T23:45:40.183Z,5.70
2019-03-22T23:48:08.696Z,5.33
2019-03-22T23:50:36.625Z,7.33
2019-03-22T23:53:04.845Z,6.83
2019-03-22T23:55:33.128Z,12.43
2019-03-22T23:58:01.742Z,5.70
